createdAt,value
2022-09-21T00:01:34.259Z,20.00
2022-09-21T00:04:04.897Z,20.10
2022-09-21T00:06:35.197Z,20.50
2022-09-21T00:09:05.089Z,20.20
2022-09-21T00:11:35.496Z,20.50
2022-09-21T00:14:07.948Z,19.80
2022-09-21T00:16:36.455Z,20.50
2022-09-21T00:19:04.665Z,20.30
2022-09-21T00:21:32.974Z,20.20
2022-09-21T00:24:02.516Z,20.40
2022-09-21T00:26:31.467Z,20.30
2022-09-21T00:29:03.184Z,20.40
2022-09-21T00:31:32.457Z,20.20
2022-09-21T00:34:03.394Z,19.70
2022-09-21T00:36:31.718Z,20.00
2022-09-21T00:39:02.709Z,20.20
2022-09-21T00:41:33.775Z,19.80
2022-09-21T00:44:36.497Z,20.00
2022-09-21T00:47:09.020Z,20.10
2022-09-21T00:49:38.106Z,19.70
2022-09-21T00:52:08.316Z,20.00
2022-09-21T00:54:43.440Z,19.80
2022-09-21T00:57:12.300Z,20.10
2022-09-21T00:59:44.255Z,19.80
2022-09-21T01:02:12.696Z,19.80
2022-09-21T01:04:40.833Z,19.80
2022-09-21T01:07:13.117Z,20.10
2022-09-21T01:09:43.064Z,19.80
2022-09-21T01:12:27.663Z,19.80
2022-09-21T01:15:15.868Z,20.30
2022-09-21T01:17:52.403Z,19.80
2022-09-21T01:20:44.773Z,20.10
2022-09-21T01:24:03.844Z,19.80
2022-09-21T01:26:54.108Z,19.90
2022-09-21T01:29:28.462Z,19.90
2022-09-21T01:32:01.897Z,19.70
2022-09-21T01:34:35.055Z,20.30
2022-09-21T01:37:08.287Z,19.60
2022-09-21T01:39:38.152Z,19.80
2022-09-21T01:42:08.545Z,20.00
2022-09-21T01:44:40.442Z,19.80
2022-09-21T01:47:12.464Z,19.70
2022-09-21T01:49:46.009Z,20.00
2022-09-21T01:52:19.742Z,19.80
2022-09-21T01:55:00.073Z,19.80
2022-09-21T01:57:36.160Z,19.70
2022-09-21T02:00:08.504Z,19.80
2022-09-21T02:02:42.716Z,19.70
2022-09-21T02:05:12.242Z,19.90
2022-09-21T02:07:40.981Z,19.60
2022-09-21T02:10:14.704Z,19.90
2022-09-21T02:12:42.754Z,19.70
2022-09-21T02:15:12.617Z,19.60
2022-09-21T02:17:50.719Z,19.90
2022-09-21T02:20:25.484Z,19.70
2022-09-21T02:23:04.965Z,19.60
2022-09-21T02:25:43.669Z,19.70
2022-09-21T02:28:22.474Z,19.50
2022-09-21T02:31:00.458Z,19.80
2022-09-21T02:33:33.676Z,19.90
2022-09-21T02:36:11.265Z,19.70
2022-09-21T02:38:46.986Z,19.70
2022-09-21T02:41:24.990Z,19.50
2022-09-21T02:44:02.839Z,19.80
2022-09-21T02:46:36.300Z,19.70
2022-09-21T02:49:09.170Z,19.60
2022-09-21T02:51:43.093Z,19.80
2022-09-21T02:54:14.971Z,19.80
2022-09-21T02:56:43.731Z,19.70
2022-09-21T02:59:12.146Z,19.60
2022-09-21T03:01:42.348Z,19.70
2022-09-21T03:04:10.957Z,19.80
2022-09-21T03:06:38.954Z,19.50
2022-09-21T03:09:06.905Z,19.80
2022-09-21T03:11:35.992Z,19.90
2022-09-21T03:14:05.435Z,19.50
2022-09-21T03:16:33.583Z,19.80
2022-09-21T03:19:02.958Z,19.40
2022-09-21T03:21:31.040Z,19.40
2022-09-21T03:23:59.036Z,19.60
2022-09-21T03:26:27.156Z,19.50
2022-09-21T03:28:55.564Z,19.90
2022-09-21T03:31:23.942Z,19.70
2022-09-21T03:33:51.963Z,19.70
2022-09-21T03:36:21.859Z,19.70
2022-09-21T03:38:49.883Z,19.60
2022-09-21T03:41:18.816Z,19.50
2022-09-21T03:43:46.822Z,19.60
2022-09-21T03:46:14.884Z,19.70
2022-09-21T03:48:47.331Z,19.60
2022-09-21T03:51:15.418Z,19.70
2022-09-21T03:53:44.728Z,19.70
2022-09-21T03:56:12.805Z,19.70
2022-09-21T03:58:41.699Z,19.70
2022-09-21T04:01:09.757Z,19.50
2022-09-21T04:03:38.563Z,19.50
2022-09-21T04:06:10.813Z,19.80
2022-09-21T04:08:38.815Z,19.60
2022-09-21T04:11:14.066Z,19.70
2022-09-21T04:13:42.366Z,19.60
2022-09-21T04:16:11.721Z,19.50
2022-09-21T04:18:40.182Z,19.70
2022-09-21T04:21:08.107Z,19.60
2022-09-21T04:23:36.133Z,19.50
2022-09-21T04:26:04.263Z,19.60
2022-09-21T04:28:33.589Z,19.50
2022-09-21T04:31:01.683Z,19.50
2022-09-21T04:33:29.677Z,19.60
2022-09-21T04:35:58.032Z,19.50
2022-09-21T04:38:26.005Z,19.50
2022-09-21T04:40:57.542Z,19.70
2022-09-21T04:43:26.089Z,19.50
2022-09-21T04:45:55.438Z,19.60
2022-09-21T04:48:23.461Z,19.60
2022-09-21T04:50:52.346Z,19.80
2022-09-21T04:53:20.349Z,19.60
2022-09-21T04:55:48.331Z,19.40
2022-09-21T04:58:16.296Z,19.50
2022-09-21T05:00:44.357Z,19.50
2022-09-21T05:03:13.741Z,19.60
2022-09-21T05:05:48.484Z,19.50
2022-09-21T05:08:17.208Z,19.40
2022-09-21T05:10:44.551Z,19.20
2022-09-21T05:13:15.603Z,19.60
2022-09-21T05:15:45.827Z,19.60
2022-09-21T05:18:15.163Z,19.40
2022-09-21T05:20:43.104Z,19.70
2022-09-21T05:23:16.154Z,19.70
2022-09-21T05:25:45.123Z,19.50
2022-09-21T05:28:13.923Z,19.60
2022-09-21T05:30:56.107Z,19.10
2022-09-21T05:33:33.811Z,19.30
2022-09-21T05:36:12.499Z,19.60
2022-09-21T05:38:41.303Z,19.50
2022-09-21T05:41:10.371Z,19.70
2022-09-21T05:43:39.089Z,19.20
2022-09-21T05:46:20.168Z,19.70
2022-09-21T05:48:58.101Z,19.40
2022-09-21T05:51:35.860Z,19.70
2022-09-21T05:54:14.581Z,19.40
2022-09-21T05:56:53.287Z,19.60
2022-09-21T05:59:51.985Z,19.60
2022-09-21T06:02:34.471Z,19.60
2022-09-21T06:05:08.431Z,19.50
2022-09-21T06:07:36.360Z,19.60
2022-09-21T06:10:05.312Z,19.70
2022-09-21T06:12:33.348Z,19.40
2022-09-21T06:15:01.359Z,19.70
2022-09-21T06:17:29.343Z,19.50
2022-09-21T06:19:57.295Z,19.40
2022-09-21T06:22:26.734Z,19.50
2022-09-21T06:24:54.747Z,19.80
2022-09-21T06:27:22.801Z,19.60
2022-09-21T06:29:50.834Z,19.50
2022-09-21T06:32:20.778Z,19.60
2022-09-21T06:34:49.827Z,19.70
2022-09-21T06:37:18.084Z,19.70
2022-09-21T06:39:49.658Z,19.60
2022-09-21T06:42:17.635Z,19.70
2022-09-21T06:44:46.820Z,19.90
2022-09-21T06:47:14.857Z,19.70
2022-09-21T06:49:42.936Z,19.50
2022-09-21T06:52:11.081Z,19.70
2022-09-21T06:54:39.601Z,19.70
2022-09-21T06:57:08.975Z,19.60
2022-09-21T06:59:36.937Z,19.70
2022-09-21T07:02:05.082Z,20.00
2022-09-21T07:04:33.169Z,19.80
2022-09-21T07:07:03.615Z,19.70
2022-09-21T07:12:22.002Z,19.60
2022-09-21T07:14:49.965Z,19.20
2022-09-21T07:17:17.945Z,18.80
2022-09-21T07:19:46.019Z,18.40
2022-09-21T07:22:13.982Z,18.20
2022-09-21T07:24:42.021Z,18.20
2022-09-21T07:27:09.996Z,18.30
2022-09-21T07:29:39.285Z,18.20
2022-09-21T07:32:07.259Z,17.70
2022-09-21T07:34:37.744Z,17.80
2022-09-21T07:37:05.856Z,18.60
2022-09-21T07:39:33.799Z,19.30
2022-09-21T07:42:01.786Z,19.40
2022-09-21T07:44:29.758Z,20.00
2022-09-21T07:46:59.063Z,19.80
2022-09-21T07:49:27.082Z,20.00
2022-09-21T07:51:55.104Z,20.00
2022-09-21T07:54:23.064Z,20.30
2022-09-21T07:57:05.007Z,19.90
2022-09-21T07:59:33.568Z,20.30
2022-09-21T08:02:02.933Z,20.50
2022-09-21T08:04:30.970Z,20.00
2022-09-21T08:06:59.014Z,20.60
2022-09-21T08:09:27.051Z,20.40
2022-09-21T08:11:55.588Z,20.60
2022-09-21T08:14:26.502Z,20.60
2022-09-21T08:16:54.871Z,20.70
2022-09-21T08:19:25.629Z,20.40
2022-09-21T08:21:57.574Z,20.70
2022-09-21T08:24:27.055Z,20.60
2022-09-21T08:26:55.619Z,20.60
2022-09-21T08:29:24.480Z,20.50
2022-09-21T08:31:53.190Z,20.70
2022-09-21T08:34:21.243Z,20.30
2022-09-21T08:36:55.032Z,20.80
2022-09-21T08:39:23.807Z,20.80
2022-09-21T08:42:21.784Z,20.90
2022-09-21T08:44:54.172Z,20.90
2022-09-21T08:47:33.565Z,20.70
2022-09-21T08:50:04.879Z,21.10
2022-09-21T08:52:34.787Z,20.70
2022-09-21T08:55:19.473Z,21.10
2022-09-21T08:57:47.524Z,21.30
2022-09-21T09:00:18.356Z,20.60
2022-09-21T09:03:24.222Z,21.20
2022-09-21T09:06:00.381Z,21.10
2022-09-21T09:08:56.261Z,21.00
2022-09-21T09:11:38.896Z,21.30
2022-09-21T09:14:28.078Z,21.00
2022-09-21T09:17:15.974Z,21.50
2022-09-21T09:19:49.019Z,21.30
2022-09-21T09:22:30.446Z,21.10
2022-09-21T09:25:04.832Z,21.20
2022-09-21T09:27:39.088Z,21.30
2022-09-21T09:30:17.698Z,21.30
2022-09-21T09:32:55.181Z,21.30
2022-09-21T09:35:29.314Z,21.50
2022-09-21T09:38:03.644Z,21.40
2022-09-21T09:40:52.694Z,21.60
2022-09-21T09:43:34.249Z,21.70
2022-09-21T09:46:13.574Z,21.70
2022-09-21T09:49:19.696Z,21.70
2022-09-21T09:51:49.107Z,21.50
2022-09-21T09:54:20.121Z,21.50
2022-09-21T09:56:49.445Z,21.40
2022-09-21T09:59:28.518Z,21.30
2022-09-21T10:02:05.762Z,21.60
2022-09-21T10:04:35.591Z,21.60
2022-09-21T10:07:03.620Z,21.50
2022-09-21T10:09:34.197Z,21.60
2022-09-21T10:12:17.145Z,21.40
2022-09-21T10:14:52.721Z,21.60
2022-09-21T10:17:21.213Z,21.60
2022-09-21T10:19:49.465Z,21.70
2022-09-21T10:22:19.950Z,21.60
2022-09-21T10:24:52.505Z,22.20
2022-09-21T10:27:27.407Z,22.00
2022-09-21T10:29:55.579Z,21.80
2022-09-21T10:32:26.381Z,22.00
2022-09-21T10:35:17.948Z,21.80
2022-09-21T10:37:49.205Z,21.70
2022-09-21T10:40:26.700Z,22.30
2022-09-21T10:42:59.705Z,22.10
2022-09-21T10:45:29.357Z,22.30
2022-09-21T10:47:59.883Z,21.70
2022-09-21T10:50:31.473Z,22.00
2022-09-21T10:53:03.875Z,21.90
2022-09-21T10:55:33.048Z,22.40
2022-09-21T10:58:02.430Z,22.00
2022-09-21T11:00:38.456Z,22.50
2022-09-21T11:03:48.468Z,22.20
2022-09-21T11:06:22.348Z,22.50
2022-09-21T11:08:57.144Z,22.30
2022-09-21T11:11:44.577Z,22.20
2022-09-21T11:14:28.707Z,22.20
2022-09-21T11:17:00.762Z,22.20
2022-09-21T11:19:42.280Z,22.40
2022-09-21T11:22:19.640Z,22.10
2022-09-21T11:24:53.672Z,22.50
2022-09-21T11:27:28.364Z,22.50
2022-09-21T11:30:03.946Z,22.40
2022-09-21T11:33:02.619Z,22.70
2022-09-21T11:35:49.532Z,22.50
2022-09-21T11:38:36.750Z,22.70
2022-09-21T11:41:38.246Z,22.70
2022-09-21T11:44:25.881Z,22.60
2022-09-21T11:47:07.376Z,22.60
2022-09-21T11:50:07.864Z,22.40
2022-09-21T11:52:58.295Z,22.60
2022-09-21T11:56:02.291Z,22.70
2022-09-21T11:58:38.820Z,22.50
2022-09-21T12:01:19.969Z,22.70
2022-09-21T12:04:16.988Z,22.70
2022-09-21T12:07:00.436Z,22.50
2022-09-21T12:10:06.225Z,22.70
2022-09-21T12:12:44.499Z,22.80
2022-09-21T12:15:19.597Z,22.80
2022-09-21T12:17:59.547Z,22.50
2022-09-21T12:20:38.106Z,22.80
2022-09-21T12:23:14.198Z,22.90
2022-09-21T12:25:47.767Z,22.80
2022-09-21T12:28:23.629Z,22.60
2022-09-21T12:31:00.590Z,22.70
2022-09-21T12:33:40.368Z,22.70
2022-09-21T12:36:17.153Z,23.30
2022-09-21T12:38:52.936Z,23.30
2022-09-21T12:41:32.017Z,22.90
2022-09-21T12:44:11.032Z,23.10
2022-09-21T12:46:45.147Z,22.80
2022-09-21T12:49:17.192Z,23.20
2022-09-21T12:51:54.424Z,23.00
2022-09-21T12:54:37.772Z,23.10
2022-09-21T12:57:42.537Z,23.20
2022-09-21T13:00:14.576Z,23.00
2022-09-21T13:02:49.401Z,22.80
2022-09-21T13:05:32.093Z,22.70
2022-09-21T13:08:14.422Z,23.10
2022-09-21T13:10:54.697Z,22.90
2022-09-21T13:13:31.019Z,23.10
2022-09-21T13:16:00.456Z,22.80
2022-09-21T13:18:36.237Z,22.90
2022-09-21T13:21:17.961Z,23.20
2022-09-21T13:23:56.412Z,23.00
2022-09-21T13:26:35.789Z,23.10
2022-09-21T13:29:36.206Z,23.20
2022-09-21T13:32:20.785Z,22.90
2022-09-21T13:34:50.813Z,22.70
2022-09-21T13:37:33.811Z,22.80
2022-09-21T13:40:46.814Z,23.10
2022-09-21T13:43:24.536Z,23.20
2022-09-21T13:45:59.563Z,22.90
2022-09-21T13:48:32.503Z,22.90
2022-09-21T13:51:06.571Z,23.30
2022-09-21T13:53:40.782Z,23.00
2022-09-21T13:56:21.045Z,23.60
2022-09-21T13:58:53.632Z,23.30
2022-09-21T14:01:46.347Z,23.10
2022-09-21T14:04:25.452Z,23.40
2022-09-21T14:06:55.775Z,23.20
2022-09-21T14:09:28.402Z,23.00
2022-09-21T14:12:01.585Z,23.00
2022-09-21T14:14:33.921Z,23.20
2022-09-21T14:17:03.965Z,23.20
2022-09-21T14:20:01.997Z,23.30
2022-09-21T14:22:43.912Z,23.50
2022-09-21T14:25:53.011Z,23.40
2022-09-21T14:28:35.413Z,23.30
2022-09-21T14:31:07.955Z,23.40
2022-09-21T14:33:45.913Z,23.40
2022-09-21T14:36:20.612Z,22.80
2022-09-21T14:38:54.668Z,22.90
2022-09-21T14:41:25.408Z,22.70
2022-09-21T14:43:56.475Z,22.70
2022-09-21T14:46:51.874Z,22.50
2022-09-21T14:49:40.773Z,22.70
2022-09-21T14:52:31.896Z,22.60
2022-09-21T14:55:15.651Z,22.40
2022-09-21T14:58:17.171Z,22.50
2022-09-21T15:00:49.779Z,22.30
2022-09-21T15:03:38.931Z,22.40
2022-09-21T15:06:38.474Z,22.30
2022-09-21T15:10:04.713Z,22.10
2022-09-21T15:12:43.513Z,21.90
2022-09-21T15:15:29.911Z,22.40
2022-09-21T15:18:01.872Z,22.40
2022-09-21T15:20:33.053Z,22.30
2022-09-21T15:23:02.027Z,22.40
2022-09-21T15:25:33.373Z,22.30
2022-09-21T15:28:01.947Z,21.80
2022-09-21T15:30:33.613Z,21.70
2022-09-21T15:33:04.040Z,22.20
2022-09-21T15:35:33.807Z,21.70
2022-09-21T15:38:02.306Z,21.70
2022-09-21T15:40:33.244Z,22.20
2022-09-21T15:43:05.510Z,22.00
2022-09-21T15:45:51.605Z,22.30
2022-09-21T15:48:21.542Z,22.00
2022-09-21T15:50:57.787Z,21.70
2022-09-21T15:53:30.918Z,21.80
2022-09-21T15:56:01.430Z,22.30
2022-09-21T15:58:35.700Z,22.30
2022-09-21T16:01:11.299Z,22.10
2022-09-21T16:03:41.980Z,21.80
2022-09-21T16:06:26.764Z,22.20
2022-09-21T16:08:55.753Z,22.00
2022-09-21T16:11:35.837Z,22.00
2022-09-21T16:14:29.063Z,22.10
2022-09-21T16:17:22.099Z,21.70
2022-09-21T16:20:19.661Z,21.90
2022-09-21T16:22:50.534Z,22.10
2022-09-21T16:25:38.215Z,21.70
2022-09-21T16:28:26.364Z,22.20
2022-09-21T16:30:57.225Z,22.10
2022-09-21T16:34:01.465Z,21.70
2022-09-21T16:36:44.721Z,22.30
2022-09-21T16:39:16.123Z,22.20
2022-09-21T16:41:58.201Z,22.10
2022-09-21T16:44:27.924Z,22.20
2022-09-21T16:46:59.883Z,21.80
2022-09-21T16:49:32.641Z,22.00
2022-09-21T16:52:02.619Z,21.90
2022-09-21T16:54:30.966Z,22.10
2022-09-21T16:57:00.696Z,21.60
2022-09-21T16:59:29.376Z,21.60
2022-09-21T17:02:00.284Z,21.60
2022-09-21T17:04:31.104Z,21.60
2022-09-21T17:07:00.712Z,21.60
2022-09-21T17:09:33.171Z,21.40
2022-09-21T17:12:02.679Z,21.60
2022-09-21T17:14:35.232Z,21.50
2022-09-21T17:17:08.239Z,21.50
2022-09-21T17:19:36.761Z,21.50
2022-09-21T17:22:07.187Z,21.40
2022-09-21T17:24:50.341Z,21.50
2022-09-21T17:27:22.642Z,21.50
2022-09-21T17:29:51.064Z,21.50
2022-09-21T17:32:21.786Z,21.50
2022-09-21T17:34:57.517Z,21.40
2022-09-21T17:37:27.080Z,21.40
2022-09-21T17:39:55.000Z,21.60
2022-09-21T17:42:25.627Z,21.40
2022-09-21T17:45:13.311Z,21.50
2022-09-21T17:47:42.233Z,21.40
2022-09-21T17:50:22.893Z,21.60
2022-09-21T17:53:11.263Z,21.50
2022-09-21T17:55:40.168Z,21.50
2022-09-21T17:58:33.576Z,21.30
2022-09-21T18:01:08.245Z,21.20
2022-09-21T18:03:41.674Z,21.40
2022-09-21T18:06:11.165Z,21.30
2022-09-21T18:08:41.705Z,21.30
2022-09-21T18:11:25.534Z,21.30
2022-09-21T18:14:05.515Z,21.40
2022-09-21T18:16:45.914Z,21.00
2022-09-21T18:19:33.212Z,21.40
2022-09-21T18:22:13.746Z,21.50
2022-09-21T18:24:44.541Z,21.30
2022-09-21T18:27:13.856Z,21.30
2022-09-21T18:29:42.658Z,21.10
2022-09-21T18:32:39.535Z,21.30
2022-09-21T18:35:27.561Z,21.30
2022-09-21T18:38:16.237Z,20.90
2022-09-21T18:41:03.014Z,21.20
2022-09-21T18:43:44.727Z,21.30
2022-09-21T18:46:17.993Z,20.80
2022-09-21T18:48:59.943Z,21.30
2022-09-21T18:51:37.502Z,21.20
2022-09-21T18:54:06.187Z,20.60
2022-09-21T18:56:38.728Z,21.10
2022-09-21T18:59:07.349Z,20.80
2022-09-21T19:01:36.412Z,20.90
2022-09-21T19:04:05.706Z,21.00
2022-09-21T19:06:45.263Z,20.90
2022-09-21T19:09:37.400Z,21.20
2022-09-21T19:12:21.327Z,20.80
2022-09-21T19:15:07.840Z,20.70
2022-09-21T19:17:58.962Z,20.80
2022-09-21T19:20:43.891Z,20.80
2022-09-21T19:23:38.005Z,20.50
2022-09-21T19:26:15.868Z,20.60
2022-09-21T19:29:04.036Z,20.90
2022-09-21T19:31:33.006Z,20.50
2022-09-21T19:34:12.939Z,20.90
2022-09-21T19:36:41.614Z,21.00
2022-09-21T19:39:11.580Z,21.20
2022-09-21T19:41:54.491Z,20.80
2022-09-21T19:44:41.538Z,20.90
2022-09-21T19:47:21.736Z,20.80
2022-09-21T19:49:53.866Z,20.60
2022-09-21T19:52:30.798Z,20.90
2022-09-21T19:55:17.716Z,20.60
2022-09-21T19:58:04.597Z,20.40
2022-09-21T20:00:34.502Z,20.70
2022-09-21T20:03:08.900Z,20.90
2022-09-21T20:05:48.183Z,21.00
2022-09-21T20:08:24.445Z,20.80
2022-09-21T20:11:13.987Z,20.70
2022-09-21T20:13:58.593Z,20.60
2022-09-21T20:16:40.167Z,21.00
2022-09-21T20:19:31.151Z,20.70
2022-09-21T20:22:04.752Z,20.50
2022-09-21T20:24:43.018Z,20.60
2022-09-21T20:27:26.851Z,20.80
2022-09-21T20:29:54.944Z,21.00
2022-09-21T20:32:24.469Z,20.50
2022-09-21T20:34:52.399Z,20.60
2022-09-21T20:37:22.261Z,20.90
2022-09-21T20:39:50.284Z,20.40
2022-09-21T20:42:21.948Z,20.70
2022-09-21T20:44:50.239Z,20.50
2022-09-21T20:47:19.325Z,20.70
2022-09-21T20:49:49.098Z,20.50
2022-09-21T20:52:18.136Z,20.60
2022-09-21T20:54:49.225Z,20.40
2022-09-21T20:57:17.807Z,20.80
2022-09-21T20:59:45.912Z,20.40
2022-09-21T21:02:16.447Z,20.70
2022-09-21T21:04:44.477Z,20.40
2022-09-21T21:07:13.858Z,20.60
2022-09-21T21:09:41.860Z,20.40
2022-09-21T21:12:10.496Z,20.50
2022-09-21T21:14:38.933Z,20.60
2022-09-21T21:17:07.044Z,20.70
2022-09-21T21:19:35.170Z,20.30
2022-09-21T21:22:03.184Z,20.40
2022-09-21T21:24:41.909Z,20.70
2022-09-21T21:27:14.653Z,20.50
2022-09-21T21:29:43.240Z,20.30
2022-09-21T21:32:11.353Z,20.50
2022-09-21T21:34:39.296Z,20.30
2022-09-21T21:37:07.446Z,20.40
2022-09-21T21:39:36.847Z,20.70
2022-09-21T21:42:05.767Z,20.50
2022-09-21T21:44:34.103Z,20.30
2022-09-21T21:47:20.927Z,20.50
2022-09-21T21:49:49.994Z,20.20
2022-09-21T21:52:17.983Z,20.20
2022-09-21T21:54:47.308Z,20.40
2022-09-21T21:57:15.328Z,20.30
2022-09-21T21:59:43.698Z,20.70
2022-09-21T22:02:12.023Z,20.30
2022-09-21T22:04:40.045Z,20.20
2022-09-21T22:07:08.055Z,20.40
2022-09-21T22:09:36.048Z,20.40
2022-09-21T22:12:05.692Z,20.20
2022-09-21T22:14:33.693Z,20.30
2022-09-21T22:17:01.670Z,20.20
2022-09-21T22:19:29.740Z,20.30
2022-09-21T22:21:57.777Z,20.00
2022-09-21T22:24:26.131Z,20.40
2022-09-21T22:26:54.130Z,20.40
2022-09-21T22:29:23.513Z,20.50
2022-09-21T22:31:51.686Z,20.30
2022-09-21T22:34:20.789Z,20.30
2022-09-21T22:36:48.831Z,20.50
2022-09-21T22:39:16.911Z,20.50
2022-09-21T22:41:45.243Z,20.20
2022-09-21T22:44:13.534Z,20.30
2022-09-21T22:46:42.975Z,20.20
2022-09-21T22:49:11.004Z,20.20
2022-09-21T22:51:38.996Z,20.20
2022-09-21T22:54:07.408Z,19.90
2022-09-21T22:56:36.007Z,20.20
2022-09-21T22:59:06.168Z,20.20
2022-09-21T23:01:36.566Z,20.20
2022-09-21T23:04:08.202Z,20.40
2022-09-21T23:06:39.107Z,20.10
2022-09-21T23:09:10.368Z,20.20
2022-09-21T23:11:42.683Z,20.30
2022-09-21T23:14:12.748Z,20.20
2022-09-21T23:16:41.245Z,20.30
2022-09-21T23:19:15.588Z,20.20
2022-09-21T23:21:45.963Z,20.10
2022-09-21T23:24:14.007Z,20.20
2022-09-21T23:26:42.159Z,20.40
2022-09-21T23:29:13.435Z,20.20
2022-09-21T23:31:45.071Z,20.20
2022-09-21T23:34:16.915Z,20.30
2022-09-21T23:36:46.240Z,20.20
2022-09-21T23:39:16.091Z,20.40
2022-09-21T23:41:44.716Z,20.00
2022-09-21T23:44:13.230Z,20.20
2022-09-21T23:46:42.068Z,20.50
2022-09-21T23:49:10.593Z,19.90
2022-09-21T23:51:40.218Z,20.10
2022-09-21T23:54:08.803Z,20.10
2022-09-21T23:56:36.933Z,20.10
2022-09-21T23:59:05.392Z,20.20
